Time;durP1;ratioP1;P1;durP2;ratioP2;P2;SDS_P1;SDS_P2;PMS_P1;PMS_P2;Temp;Humidity;BMP_temperature;BMP_pressure;BME280_temperature;BME280_humidity;BME280_pressure;Samples;Min_cycle;Max_cycle;Signal;HPM_P1;HPM_P2
2023/07/30 00:01:59;;;;;;;7.93;4.80;;;;;;;;;;5055393;28;20187;-86
2023/07/30 00:04:25;;;;;;;13.67;4.80;;;;;;;;;;5054533;28;20171;-88
2023/07/30 00:06:51;;;;;;;12.93;5.17;;;;;;;;;;5055479;28;20271;-88
2023/07/30 00:09:17;;;;;;;12.00;4.60;;;;;;;;;;5055044;28;20176;-86
2023/07/30 00:11:45;;;;;;;9.53;4.43;;;;;;;;;;5055144;28;20175;-87
2023/07/30 00:14:11;;;;;;;7.83;4.87;;;;;;;;;;5055008;28;20214;-87
2023/07/30 00:16:37;;;;;;;8.53;4.80;;;;;;;;;;5038499;28;20184;-87
2023/07/30 00:19:03;;;;;;;10.13;5.03;;;;;;;;;;5054938;28;20224;-87
2023/07/30 00:21:32;;;;;;;12.63;4.63;;;;;;;;;;5054922;28;20211;-87
2023/07/30 00:23:59;;;;;;;10.70;5.00;;;;;;;;;;5055490;28;20184;-87
2023/07/30 00:26:26;;;;;;;9.17;4.40;;;;;;;;;;5054835;28;20176;-87
2023/07/30 00:28:54;;;;;;;10.13;4.60;;;;;;;;;;5055171;28;20199;-88
2023/07/30 00:31:20;;;;;;;10.10;4.90;;;;;;;;;;5038369;28;20190;-87
2023/07/30 00:33:46;;;;;;;11.50;4.83;;;;;;;;;;5054632;28;20211;-87
2023/07/30 00:36:12;;;;;;;12.37;5.37;;;;;;;;;;5054639;28;20269;-87
2023/07/30 00:38:38;;;;;;;12.40;5.07;;;;;;;;;;5055644;28;20176;-87
2023/07/30 00:41:05;;;;;;;10.73;4.60;;;;;;;;;;5054703;28;20176;-86
2023/07/30 00:43:31;;;;;;;9.90;4.73;;;;;;;;;;5054401;28;20306;-88
2023/07/30 00:45:57;;;;;;;9.43;4.63;;;;;;;;;;5038350;28;20188;-87
2023/07/30 00:48:25;;;;;;;13.40;4.60;;;;;;;;;;5054649;28;20175;-87
2023/07/30 00:50:51;;;;;;;8.30;4.20;;;;;;;;;;5053245;28;20188;-87
2023/07/30 00:53:18;;;;;;;9.73;4.13;;;;;;;;;;5052981;28;20203;-87
2023/07/30 00:55:47;;;;;;;10.53;4.07;;;;;;;;;;5052859;28;20225;-87
2023/07/30 00:58:13;;;;;;;10.03;4.60;;;;;;;;;;5052991;28;20176;-87
2023/07/30 01:00:39;;;;;;;10.63;4.17;;;;;;;;;;5052884;28;20191;-87
2023/07/30 01:03:08;;;;;;;13.97;4.53;;;;;;;;;;5052819;28;20220;-87
2023/07/30 01:05:34;;;;;;;10.33;4.30;;;;;;;;;;5033073;28;20173;-87
2023/07/30 01:08:00;;;;;;;7.43;4.63;;;;;;;;;;5032311;28;20218;-87
2023/07/30 01:10:27;;;;;;;9.53;4.07;;;;;;;;;;5031954;28;20187;-87
2023/07/30 01:12:55;;;;;;;11.47;5.17;;;;;;;;;;5052453;28;20219;-86
2023/07/30 01:15:21;;;;;;;14.13;4.90;;;;;;;;;;5051934;28;20210;-87
2023/07/30 01:17:48;;;;;;;10.33;4.90;;;;;;;;;;5051830;28;20172;-87
2023/07/30 01:20:16;;;;;;;10.50;4.50;;;;;;;;;;5051939;28;20223;-87
2023/07/30 01:22:42;;;;;;;11.40;4.57;;;;;;;;;;5052270;28;20208;-87
2023/07/30 01:25:08;;;;;;;12.33;4.67;;;;;;;;;;5035234;28;20184;-87
2023/07/30 01:27:38;;;;;;;10.07;4.57;;;;;;;;;;5049579;28;20206;-87
2023/07/30 01:30:13;;;;;;;13.07;4.67;;;;;;;;;;5052058;28;20176;-87
2023/07/30 01:32:39;;;;;;;16.50;5.23;;;;;;;;;;5051949;28;20294;-87
2023/07/30 01:35:08;;;;;;;10.73;4.70;;;;;;;;;;5051727;28;20172;-86
2023/07/30 01:37:37;;;;;;;9.97;5.00;;;;;;;;;;5051956;28;20267;-87
2023/07/30 01:40:03;;;;;;;11.67;4.73;;;;;;;;;;5051743;28;20183;-87
2023/07/30 01:42:30;;;;;;;12.33;5.13;;;;;;;;;;5051575;28;20180;-87
2023/07/30 01:44:58;;;;;;;10.87;5.20;;;;;;;;;;5051712;28;20214;-87
2023/07/30 01:47:25;;;;;;;11.53;4.93;;;;;;;;;;5051211;28;20180;-87
2023/07/30 01:49:51;;;;;;;15.50;5.30;;;;;;;;;;5052214;28;20176;-87
2023/07/30 01:52:19;;;;;;;13.10;5.10;;;;;;;;;;5052089;28;20187;-86
2023/07/30 01:54:45;;;;;;;10.13;4.73;;;;;;;;;;5051233;28;20230;-86
2023/07/30 01:57:12;;;;;;;10.17;4.83;;;;;;;;;;5051450;28;20241;-87
2023/07/30 01:59:41;;;;;;;10.10;5.03;;;;;;;;;;5051033;28;20187;-87
2023/07/30 02:02:07;;;;;;;12.13;5.00;;;;;;;;;;5050936;28;20210;-87
2023/07/30 02:04:34;;;;;;;12.63;5.23;;;;;;;;;;5051226;28;20179;-87
2023/07/30 02:07:02;;;;;;;12.33;4.93;;;;;;;;;;5052319;28;20180;-87
2023/07/30 02:09:28;;;;;;;11.67;4.90;;;;;;;;;;5052122;28;20176;-87
2023/07/30 02:11:54;;;;;;;10.53;5.17;;;;;;;;;;5051026;28;20176;-87
2023/07/30 02:14:20;;;;;;;11.03;5.23;;;;;;;;;;5050457;28;20207;-87
2023/07/30 02:16:46;;;;;;;11.90;5.30;;;;;;;;;;5030856;28;20185;-87
2023/07/30 02:19:12;;;;;;;10.50;5.53;;;;;;;;;;5039775;28;20247;-87
2023/07/30 02:21:42;;;;;;;12.00;4.60;;;;;;;;;;5051108;28;20295;-86
2023/07/30 02:24:11;;;;;;;12.90;5.13;;;;;;;;;;5052602;28;20187;-86
2023/07/30 02:26:37;;;;;;;7.90;5.27;;;;;;;;;;5052317;28;20180;-87
2023/07/30 02:29:03;;;;;;;11.33;5.00;;;;;;;;;;5052564;28;20286;-86
2023/07/30 02:31:31;;;;;;;10.30;5.03;;;;;;;;;;5052664;28;20179;-87
2023/07/30 02:33:57;;;;;;;10.73;5.40;;;;;;;;;;5052936;28;20226;-86
2023/07/30 02:36:24;;;;;;;11.90;5.40;;;;;;;;;;5052497;28;20188;-86
2023/07/30 02:38:50;;;;;;;13.40;5.53;;;;;;;;;;5037099;28;20180;-86
2023/07/30 02:41:16;;;;;;;9.83;5.13;;;;;;;;;;5053573;28;20179;-87
2023/07/30 02:43:42;;;;;;;11.83;5.27;;;;;;;;;;5053110;28;20240;-87
2023/07/30 02:46:09;;;;;;;11.40;5.23;;;;;;;;;;5052798;28;20219;-87
2023/07/30 02:48:35;;;;;;;9.87;5.50;;;;;;;;;;5052778;28;20203;-87
2023/07/30 02:51:03;;;;;;;15.43;5.80;;;;;;;;;;5036044;28;20195;-86
2023/07/30 02:53:29;;;;;;;15.10;5.17;;;;;;;;;;5052814;28;20207;-87
2023/07/30 02:55:55;;;;;;;12.37;5.77;;;;;;;;;;5052581;28;20176;-87
2023/07/30 02:58:23;;;;;;;14.67;6.10;;;;;;;;;;5035816;28;20278;-87
2023/07/30 03:00:50;;;;;;;13.93;5.73;;;;;;;;;;5036504;28;20188;-87
2023/07/30 03:03:17;;;;;;;16.23;6.47;;;;;;;;;;5035988;28;20277;-86
2023/07/30 03:05:46;;;;;;;16.87;5.80;;;;;;;;;;5052687;28;20172;-87
2023/07/30 03:08:12;;;;;;;15.53;6.20;;;;;;;;;;5052349;28;20218;-87
2023/07/30 03:10:38;;;;;;;17.47;6.20;;;;;;;;;;5036034;28;20191;-87
2023/07/30 03:13:04;;;;;;;16.03;6.57;;;;;;;;;;5052017;28;20211;-86
2023/07/30 03:15:32;;;;;;;18.57;6.67;;;;;;;;;;5052576;28;20176;-87
2023/07/30 03:17:58;;;;;;;18.13;6.77;;;;;;;;;;5052326;28;20180;-86
2023/07/30 03:20:24;;;;;;;15.40;6.97;;;;;;;;;;5035595;28;20234;-87
2023/07/30 03:22:53;;;;;;;14.87;7.53;;;;;;;;;;5052441;28;20263;-87
2023/07/30 03:25:19;;;;;;;17.83;7.30;;;;;;;;;;5052027;28;20179;-86
2023/07/30 03:27:45;;;;;;;17.07;7.40;;;;;;;;;;5051480;28;20208;-87
2023/07/30 03:30:11;;;;;;;16.73;6.77;;;;;;;;;;5052133;28;20190;-86
2023/07/30 03:32:40;;;;;;;19.73;7.73;;;;;;;;;;5052156;28;20215;-87
2023/07/30 03:35:06;;;;;;;20.40;7.93;;;;;;;;;;5051946;28;20184;-87
2023/07/30 03:37:32;;;;;;;19.83;7.80;;;;;;;;;;5052589;28;20187;-87
2023/07/30 03:39:58;;;;;;;17.03;7.63;;;;;;;;;;5055402;28;20168;-86
2023/07/30 03:42:24;;;;;;;21.43;8.00;;;;;;;;;;5039390;28;20187;-87
2023/07/30 03:44:50;;;;;;;15.60;7.73;;;;;;;;;;5055914;28;20172;-88
2023/07/30 03:47:16;;;;;;;25.27;8.40;;;;;;;;;;5055734;28;20179;-87
2023/07/30 03:49:43;;;;;;;19.67;8.30;;;;;;;;;;5055881;28;20179;-87
2023/07/30 03:52:09;;;;;;;17.83;8.00;;;;;;;;;;5055607;28;20285;-87
2023/07/30 03:54:35;;;;;;;21.37;8.77;;;;;;;;;;5055378;28;20176;-87
2023/07/30 03:57:01;;;;;;;19.70;8.93;;;;;;;;;;5055774;28;20218;-87
2023/07/30 03:59:28;;;;;;;18.67;9.03;;;;;;;;;;5039317;28;20180;-87
2023/07/30 04:01:57;;;;;;;20.03;8.93;;;;;;;;;;5055839;28;20172;-87
2023/07/30 04:04:23;;;;;;;22.33;9.63;;;;;;;;;;5055380;28;20176;-87
2023/07/30 04:06:49;;;;;;;23.97;9.70;;;;;;;;;;5055448;28;20180;-87
2023/07/30 04:09:17;;;;;;;30.37;9.20;;;;;;;;;;5055473;28;20210;-87
2023/07/30 04:11:43;;;;;;;25.23;9.03;;;;;;;;;;5055184;28;20187;-87
2023/07/30 04:14:09;;;;;;;25.17;9.90;;;;;;;;;;5055295;28;20208;-87
2023/07/30 04:16:35;;;;;;;23.27;9.63;;;;;;;;;;5054988;28;20196;-87
2023/07/30 04:19:04;;;;;;;30.07;10.70;;;;;;;;;;5054869;28;20224;-87
2023/07/30 04:21:30;;;;;;;20.73;9.53;;;;;;;;;;5038292;28;20172;-87
2023/07/30 04:23:56;;;;;;;26.63;10.13;;;;;;;;;;5055019;28;20191;-87
2023/07/30 04:26:24;;;;;;;23.23;10.17;;;;;;;;;;5054949;28;20168;-87
2023/07/30 04:28:50;;;;;;;26.83;10.73;;;;;;;;;;5054958;28;20191;-87
2023/07/30 04:31:16;;;;;;;26.07;10.13;;;;;;;;;;5054775;28;20278;-87
2023/07/30 04:33:42;;;;;;;26.53;10.30;;;;;;;;;;5038107;28;20250;-87
2023/07/30 04:36:11;;;;;;;25.47;10.67;;;;;;;;;;5054560;28;20180;-87
2023/07/30 04:38:37;;;;;;;22.60;10.67;;;;;;;;;;5054811;28;20188;-87
2023/07/30 04:41:03;;;;;;;25.10;10.93;;;;;;;;;;5054785;28;20183;-87
2023/07/30 04:43:32;;;;;;;29.23;10.97;;;;;;;;;;5054199;28;20180;-86
2023/07/30 04:45:58;;;;;;;23.57;10.90;;;;;;;;;;5054423;28;20187;-87
2023/07/30 04:48:24;;;;;;;27.13;10.60;;;;;;;;;;5054320;28;20180;-87
2023/07/30 04:50:50;;;;;;;19.87;10.27;;;;;;;;;;5053899;28;20182;-87
2023/07/30 04:53:20;;;;;;;26.97;10.67;;;;;;;;;;5054443;28;20204;-88
2023/07/30 04:55:46;;;;;;;25.80;11.60;;;;;;;;;;5054254;28;20176;-88
2023/07/30 04:58:12;;;;;;;27.50;11.20;;;;;;;;;;5054640;28;20178;-87
2023/07/30 05:00:38;;;;;;;25.40;11.60;;;;;;;;;;5054282;28;20177;-88
2023/07/30 05:03:04;;;;;;;27.63;11.50;;;;;;;;;;5054142;28;20182;-87
2023/07/30 05:05:30;;;;;;;30.07;11.87;;;;;;;;;;5037510;28;20180;-87
2023/07/30 05:07:57;;;;;;;29.13;11.33;;;;;;;;;;5054177;28;20187;-86
2023/07/30 05:10:27;;;;;;;25.23;11.90;;;;;;;;;;5054268;28;20187;-87
2023/07/30 05:12:53;;;;;;;35.27;12.07;;;;;;;;;;5054331;28;20234;-87
2023/07/30 05:15:19;;;;;;;27.80;11.33;;;;;;;;;;5053849;28;20180;-88
2023/07/30 05:17:45;;;;;;;29.43;12.60;;;;;;;;;;5037571;28;20211;-86
2023/07/30 05:20:12;;;;;;;32.57;12.10;;;;;;;;;;5053744;28;20223;-87
2023/07/30 05:22:38;;;;;;;31.20;12.63;;;;;;;;;;5037545;28;20184;-87
2023/07/30 05:25:04;;;;;;;29.63;12.90;;;;;;;;;;5053843;28;20180;-87
2023/07/30 05:27:32;;;;;;;28.27;13.13;;;;;;;;;;5053930;28;20215;-88
2023/07/30 05:29:58;;;;;;;23.97;12.20;;;;;;;;;;5053909;28;20183;-87
2023/07/30 05:32:25;;;;;;;31.07;13.20;;;;;;;;;;5053731;28;20184;-87
2023/07/30 05:34:54;;;;;;;28.23;12.17;;;;;;;;;;5053798;28;20266;-87
2023/07/30 05:37:20;;;;;;;27.73;12.30;;;;;;;;;;5053119;28;20181;-87
2023/07/30 05:39:46;;;;;;;31.93;13.97;;;;;;;;;;5053376;28;20168;-87
2023/07/30 05:42:12;;;;;;;29.77;12.77;;;;;;;;;;5053436;28;20182;-87
2023/07/30 05:44:41;;;;;;;30.07;13.70;;;;;;;;;;5053155;28;20176;-88
2023/07/30 05:47:07;;;;;;;24.20;12.70;;;;;;;;;;5053120;28;20190;-88
2023/07/30 05:49:35;;;;;;;32.80;14.10;;;;;;;;;;5053273;28;20267;-87
2023/07/30 05:52:01;;;;;;;36.03;15.10;;;;;;;;;;5053350;28;20255;-87
2023/07/30 05:54:28;;;;;;;36.60;14.60;;;;;;;;;;5053340;28;20211;-87
2023/07/30 05:56:54;;;;;;;33.67;14.07;;;;;;;;;;5053347;28;20198;-87
2023/07/30 05:59:23;;;;;;;33.47;14.30;;;;;;;;;;5053096;28;20182;-87
2023/07/30 06:01:49;;;;;;;34.53;14.30;;;;;;;;;;5052618;28;20199;-87
2023/07/30 06:04:15;;;;;;;30.90;14.70;;;;;;;;;;5053231;28;20176;-88
2023/07/30 06:06:41;;;;;;;32.43;14.80;;;;;;;;;;5053305;28;20268;-87
2023/07/30 06:09:11;;;;;;;29.77;14.90;;;;;;;;;;5052908;28;20188;-88
2023/07/30 06:11:37;;;;;;;35.67;14.67;;;;;;;;;;5052780;28;20190;-87
2023/07/30 06:14:03;;;;;;;30.07;15.80;;;;;;;;;;5052883;28;20279;-87
2023/07/30 06:16:29;;;;;;;40.77;16.00;;;;;;;;;;5052947;28;20215;-87
2023/07/30 06:18:55;;;;;;;30.03;15.23;;;;;;;;;;5052517;28;20207;-88
2023/07/30 06:21:21;;;;;;;37.27;15.77;;;;;;;;;;5052754;28;20183;-87
2023/07/30 06:23:47;;;;;;;30.67;14.70;;;;;;;;;;5052730;28;20226;-87
2023/07/30 06:26:16;;;;;;;33.70;16.00;;;;;;;;;;5053033;28;20211;-87
2023/07/30 06:28:42;;;;;;;30.67;15.93;;;;;;;;;;5052570;28;20199;-87
2023/07/30 06:31:09;;;;;;;35.03;15.80;;;;;;;;;;5053068;28;20195;-87
2023/07/30 06:33:37;;;;;;;26.83;15.17;;;;;;;;;;5052779;28;20219;-87
2023/07/30 06:36:04;;;;;;;35.47;15.97;;;;;;;;;;5053015;28;20175;-88
2023/07/30 06:38:32;;;;;;;36.07;15.77;;;;;;;;;;5052868;28;20176;-88
2023/07/30 06:41:01;;;;;;;29.73;15.57;;;;;;;;;;5052378;28;20185;-88
2023/07/30 06:43:27;;;;;;;29.27;15.07;;;;;;;;;;5052536;28;20180;-88
2023/07/30 06:45:54;;;;;;;30.70;14.30;;;;;;;;;;5052435;28;20187;-88
2023/07/30 06:48:23;;;;;;;30.77;14.30;;;;;;;;;;5052262;28;20187;-88
2023/07/30 06:50:49;;;;;;;29.47;14.03;;;;;;;;;;5028822;28;20176;-88
2023/07/30 06:53:15;;;;;;;31.13;14.67;;;;;;;;;;5049980;28;20200;-87
2023/07/30 06:55:43;;;;;;;26.00;13.53;;;;;;;;;;5050186;28;20176;-87
2023/07/30 06:58:09;;;;;;;31.93;13.97;;;;;;;;;;5050175;28;20180;-87
2023/07/30 07:00:35;;;;;;;30.43;14.30;;;;;;;;;;5049783;28;20184;-88
2023/07/30 07:03:01;;;;;;;32.97;14.43;;;;;;;;;;5049812;28;20181;-86
2023/07/30 07:05:30;;;;;;;26.43;13.70;;;;;;;;;;5049920;28;20255;-85
2023/07/30 07:07:56;;;;;;;27.70;13.57;;;;;;;;;;5049601;28;20435;-85
2023/07/30 07:10:23;;;;;;;28.67;13.50;;;;;;;;;;5049492;28;20233;-85
2023/07/30 07:12:51;;;;;;;33.50;15.00;;;;;;;;;;5034575;28;20235;-87
2023/07/30 07:15:17;;;;;;;26.53;13.93;;;;;;;;;;5049602;28;20188;-85
2023/07/30 07:17:43;;;;;;;31.90;14.13;;;;;;;;;;5053712;28;20239;-85
2023/07/30 07:20:11;;;;;;;32.63;13.83;;;;;;;;;;5036774;28;20314;-87
2023/07/30 07:22:37;;;;;;;26.33;13.67;;;;;;;;;;5053397;28;20180;-87
2023/07/30 07:25:03;;;;;;;33.03;13.83;;;;;;;;;;5053447;28;20180;-87
2023/07/30 07:27:29;;;;;;;29.33;14.00;;;;;;;;;;5051754;28;20200;-87
2023/07/30 07:29:59;;;;;;;25.80;14.00;;;;;;;;;;5053222;28;20191;-87
2023/07/30 07:32:25;;;;;;;26.87;13.37;;;;;;;;;;5036937;28;20225;-86
2023/07/30 07:34:51;;;;;;;30.40;14.30;;;;;;;;;;5053186;28;20183;-87
2023/07/30 07:37:20;;;;;;;28.80;13.33;;;;;;;;;;5054121;28;20183;-87
2023/07/30 07:39:46;;;;;;;28.80;14.87;;;;;;;;;;5055250;28;20176;-86
2023/07/30 07:42:13;;;;;;;26.07;13.93;;;;;;;;;;5054922;28;20194;-86
2023/07/30 07:44:39;;;;;;;28.50;13.93;;;;;;;;;;5053095;28;20183;-87
2023/07/30 07:47:07;;;;;;;27.13;12.80;;;;;;;;;;5055315;28;20176;-86
2023/07/30 07:49:33;;;;;;;27.53;12.50;;;;;;;;;;5054949;28;20207;-86
2023/07/30 07:51:59;;;;;;;27.83;11.47;;;;;;;;;;5049837;28;20180;-85
2023/07/30 07:54:28;;;;;;;25.37;12.13;;;;;;;;;;5034197;28;20204;-87
2023/07/30 07:56:54;;;;;;;24.93;10.27;;;;;;;;;;5045685;28;20207;-87
2023/07/30 07:59:20;;;;;;;21.47;10.93;;;;;;;;;;5050300;28;20187;-87
2023/07/30 08:01:46;;;;;;;23.40;9.77;;;;;;;;;;5053599;28;20180;-86
2023/07/30 08:04:14;;;;;;;21.07;9.33;;;;;;;;;;5047869;28;20271;-86
2023/07/30 08:06:41;;;;;;;27.20;10.27;;;;;;;;;;5049314;28;20234;-86
2023/07/30 08:09:07;;;;;;;21.43;8.70;;;;;;;;;;5048404;28;20206;-86
2023/07/30 08:11:35;;;;;;;20.83;8.77;;;;;;;;;;5054055;28;20175;-87
2023/07/30 08:14:01;;;;;;;21.93;8.53;;;;;;;;;;5054709;28;20215;-87
2023/07/30 08:16:30;;;;;;;20.27;8.83;;;;;;;;;;5054315;28;20184;-86
2023/07/30 08:18:59;;;;;;;19.60;7.37;;;;;;;;;;5054195;28;20216;-85
2023/07/30 08:21:25;;;;;;;20.43;7.50;;;;;;;;;;5054008;28;20208;-87
2023/07/30 08:23:51;;;;;;;20.27;7.83;;;;;;;;;;5053685;28;20194;-86
2023/07/30 08:26:19;;;;;;;22.83;7.93;;;;;;;;;;5054052;28;20222;-86
2023/07/30 08:28:45;;;;;;;17.03;7.00;;;;;;;;;;5053498;28;20215;-90
2023/07/30 08:31:11;;;;;;;19.53;7.43;;;;;;;;;;5054177;28;20187;-91
2023/07/30 08:33:40;;;;;;;18.20;7.43;;;;;;;;;;5055426;28;20247;-85
2023/07/30 08:36:06;;;;;;;18.07;7.97;;;;;;;;;;5054436;28;20176;-86
2023/07/30 08:38:32;;;;;;;19.00;8.20;;;;;;;;;;5038525;28;20180;-86
2023/07/30 08:40:58;;;;;;;20.83;8.27;;;;;;;;;;5054476;28;20176;-87
2023/07/30 08:49:33;;;;;;;18.53;8.07;;;;;;;;;;5035827;28;20164;-86
2023/07/30 08:52:02;;;;;;;24.57;8.17;;;;;;;;;;5034417;28;20322;-88
2023/07/30 08:54:30;;;;;;;21.83;7.83;;;;;;;;;;5051449;28;20212;-88
2023/07/30 08:57:00;;;;;;;16.80;7.90;;;;;;;;;;5053806;28;20263;-89
2023/07/30 08:59:30;;;;;;;21.17;8.33;;;;;;;;;;5050498;28;20179;-91
2023/07/30 09:01:59;;;;;;;21.27;7.30;;;;;;;;;;5045813;28;20212;-89
2023/07/30 09:04:25;;;;;;;14.67;7.00;;;;;;;;;;5034607;28;20187;-88
2023/07/30 09:06:51;;;;;;;18.00;7.23;;;;;;;;;;5044984;28;20188;-90
2023/07/30 09:09:20;;;;;;;15.87;6.87;;;;;;;;;;5049129;28;20185;-88
2023/07/30 09:11:53;;;;;;;17.43;6.53;;;;;;;;;;5046494;28;20200;-87
2023/07/30 09:14:20;;;;;;;17.00;6.67;;;;;;;;;;5052215;28;20217;-87
2023/07/30 09:16:46;;;;;;;18.17;5.60;;;;;;;;;;5049678;28;20184;-87
2023/07/30 09:19:17;;;;;;;15.27;6.20;;;;;;;;;;5042124;28;20227;-86
2023/07/30 09:21:43;;;;;;;14.00;6.07;;;;;;;;;;5036644;28;20172;-87
2023/07/30 09:24:09;;;;;;;19.43;5.80;;;;;;;;;;5048379;28;20186;-89
2023/07/30 09:26:45;;;;;;;18.43;5.50;;;;;;;;;;5052155;28;20183;-87
2023/07/30 09:29:14;;;;;;;15.67;5.87;;;;;;;;;;5041586;28;20215;-87
2023/07/30 09:31:46;;;;;;;18.30;5.53;;;;;;;;;;5050834;28;20211;-86
2023/07/30 09:34:16;;;;;;;17.00;5.03;;;;;;;;;;5044628;28;20212;-88
2023/07/30 09:36:42;;;;;;;16.10;5.17;;;;;;;;;;5036513;28;20180;-85
2023/07/30 09:39:16;;;;;;;16.83;4.73;;;;;;;;;;5035233;28;20180;-86
2023/07/30 09:41:47;;;;;;;15.67;5.37;;;;;;;;;;5052995;28;20172;-87
2023/07/30 09:44:16;;;;;;;15.27;4.60;;;;;;;;;;5053232;28;20191;-87
2023/07/30 09:46:46;;;;;;;15.93;5.17;;;;;;;;;;5050936;28;20274;-86
2023/07/30 09:49:12;;;;;;;16.33;4.63;;;;;;;;;;5053359;28;20180;-86
2023/07/30 09:51:39;;;;;;;16.87;5.07;;;;;;;;;;5052945;28;20629;-90
2023/07/30 09:54:11;;;;;;;15.23;4.57;;;;;;;;;;5053488;28;20214;-88
2023/07/30 09:56:38;;;;;;;12.57;4.10;;;;;;;;;;5049058;28;20180;-88
2023/07/30 09:59:07;;;;;;;15.33;4.43;;;;;;;;;;5036406;28;20196;-86
2023/07/30 10:01:36;;;;;;;13.83;4.73;;;;;;;;;;5052923;28;20176;-87
2023/07/30 10:04:07;;;;;;;12.70;3.67;;;;;;;;;;5053228;28;20183;-88
2023/07/30 10:06:36;;;;;;;15.00;4.20;;;;;;;;;;5054339;28;20179;-88
2023/07/30 10:09:04;;;;;;;12.13;4.40;;;;;;;;;;5052748;28;20191;-85
2023/07/30 10:11:33;;;;;;;11.37;4.30;;;;;;;;;;5052970;28;20191;-86
2023/07/30 10:14:02;;;;;;;12.97;4.13;;;;;;;;;;5052888;28;20218;-84
2023/07/30 10:16:29;;;;;;;13.37;4.03;;;;;;;;;;5053395;28;20211;-86
2023/07/30 10:19:05;;;;;;;13.97;4.50;;;;;;;;;;5053951;28;20224;-87
2023/07/30 10:21:36;;;;;;;15.33;4.40;;;;;;;;;;5052941;28;20191;-91
2023/07/30 10:24:05;;;;;;;12.03;4.50;;;;;;;;;;5049517;28;20183;-86
2023/07/30 10:26:37;;;;;;;11.70;3.90;;;;;;;;;;5052960;28;20184;-87
2023/07/30 10:41:26;;;;;;;11.73;4.10;;;;;;;;;;5053792;28;20166;-87
2023/07/30 10:46:46;;;;;;;13.43;3.23;;;;;;;;;;5038244;28;20197;-87
2023/07/30 10:49:13;;;;;;;11.53;3.17;;;;;;;;;;5036584;28;20211;-87
2023/07/30 10:51:41;;;;;;;10.23;2.77;;;;;;;;;;5042682;28;20187;-86
2023/07/30 10:54:08;;;;;;;8.93;2.90;;;;;;;;;;5057038;28;20302;-86
2023/07/30 10:56:36;;;;;;;9.10;2.50;;;;;;;;;;5057592;28;20176;-88
2023/07/30 10:59:08;;;;;;;6.73;2.40;;;;;;;;;;5056829;28;20176;-91
2023/07/30 11:01:41;;;;;;;9.33;2.80;;;;;;;;;;5054964;28;20175;-87
2023/07/30 11:04:13;;;;;;;8.03;2.83;;;;;;;;;;5058433;28;20187;-92
2023/07/30 11:06:39;;;;;;;6.13;2.27;;;;;;;;;;5057003;28;20187;-85
2023/07/30 11:09:05;;;;;;;8.83;2.53;;;;;;;;;;5054192;28;20219;-84
2023/07/30 11:11:35;;;;;;;9.93;2.67;;;;;;;;;;5056478;28;20279;-88
2023/07/30 11:14:03;;;;;;;5.63;2.30;;;;;;;;;;5053347;28;20211;-87
2023/07/30 11:16:39;;;;;;;;;;;;;;;;;;;;;
2023/07/30 11:19:16;;;;;;;7.67;2.60;;;;;;;;;;5033313;28;20276;-90
2023/07/30 11:21:48;;;;;;;8.33;2.53;;;;;;;;;;5036355;28;20187;-91
2023/07/30 11:24:15;;;;;;;6.83;2.50;;;;;;;;;;5036746;28;20231;-87
2023/07/30 11:27:06;;;;;;;7.30;2.63;;;;;;;;;;5036035;28;20357;-86
2023/07/30 11:29:32;;;;;;;6.33;2.20;;;;;;;;;;5036056;28;20240;-89
2023/07/30 11:31:59;;;;;;;6.50;2.30;;;;;;;;;;5038098;28;20184;-92
2023/07/30 11:37:55;;;;;;;6.97;2.60;;;;;;;;;;5037663;28;20159;-89
2023/07/30 11:40:21;;;;;;;7.93;2.70;;;;;;;;;;5048683;28;20214;-88
2023/07/30 11:42:50;;;;;;;7.00;2.40;;;;;;;;;;5056038;28;20267;-89
2023/07/30 11:45:20;;;;;;;8.80;2.60;;;;;;;;;;5055786;28;20176;-89
2023/07/30 11:48:08;;;;;;;10.80;2.67;;;;;;;;;;5036633;28;20188;-88
2023/07/30 11:50:50;;;;;;;8.95;2.50;;;;;;;;;;5035795;28;20173;-88
2023/07/30 11:53:18;;;;;;;9.05;2.67;;;;;;;;;;5035674;28;20204;-90
2023/07/30 11:55:48;;;;;;;6.77;2.10;;;;;;;;;;5035741;28;20184;-88
2023/07/30 11:58:15;;;;;;;7.07;2.30;;;;;;;;;;5035540;28;20183;-87
2023/07/30 12:00:44;;;;;;;6.25;2.42;;;;;;;;;;5034886;28;20180;-88
2023/07/30 12:03:12;;;;;;;9.32;2.45;;;;;;;;;;5047424;28;20184;-89
2023/07/30 12:05:39;;;;;;;7.28;2.40;;;;;;;;;;5055203;28;20180;-90
2023/07/30 12:08:14;;;;;;;7.20;2.30;;;;;;;;;;5055267;28;20263;-88
2023/07/30 12:10:43;;;;;;;8.17;2.73;;;;;;;;;;5055668;28;20179;-89
2023/07/30 12:13:13;;;;;;;8.63;2.77;;;;;;;;;;5054997;28;20231;-87
2023/07/30 12:15:58;;;;;;;4.68;2.00;;;;;;;;;;5054237;28;20184;-89
2023/07/30 12:18:27;;;;;;;8.93;2.78;;;;;;;;;;5055317;28;20266;-88
2023/07/30 12:20:54;;;;;;;10.83;2.67;;;;;;;;;;5055110;28;20357;-87
2023/07/30 12:23:20;;;;;;;7.17;2.50;;;;;;;;;;5055560;28;20183;-87
2023/07/30 12:25:49;;;;;;;7.97;2.28;;;;;;;;;;5055399;28;20176;-88
2023/07/30 12:28:16;;;;;;;8.07;2.30;;;;;;;;;;5055021;28;20200;-89
2023/07/30 12:30:42;;;;;;;9.07;2.38;;;;;;;;;;5054988;28;20176;-89
2023/07/30 12:33:08;;;;;;;6.78;2.22;;;;;;;;;;5054729;28;20212;-89
2023/07/30 12:35:37;;;;;;;9.55;2.05;;;;;;;;;;5054551;28;20179;-89
2023/07/30 12:38:06;;;;;;;4.90;2.00;;;;;;;;;;5054880;28;20168;-89
2023/07/30 12:40:37;;;;;;;10.63;2.60;;;;;;;;;;5055405;28;20179;-88
2023/07/30 12:43:03;;;;;;;7.47;2.20;;;;;;;;;;5054835;28;20210;-88
2023/07/30 12:45:32;;;;;;;8.57;2.42;;;;;;;;;;5054152;28;20517;-87
2023/07/30 12:47:58;;;;;;;7.05;2.20;;;;;;;;;;5054512;28;20180;-87
2023/07/30 12:50:25;;;;;;;5.55;1.90;;;;;;;;;;5037910;28;20230;-88
2023/07/30 12:52:51;;;;;;;6.85;2.05;;;;;;;;;;5054953;28;20235;-87
2023/07/30 12:55:19;;;;;;;5.60;1.65;;;;;;;;;;5054611;28;20179;-88
2023/07/30 12:57:45;;;;;;;9.88;1.90;;;;;;;;;;5054382;28;20214;-88
2023/07/30 13:00:12;;;;;;;7.22;1.80;;;;;;;;;;5054250;28;20172;-89
2023/07/30 13:02:41;;;;;;;6.25;2.17;;;;;;;;;;5054429;28;20236;-89
2023/07/30 13:05:07;;;;;;;6.90;1.92;;;;;;;;;;5053875;28;20168;-87
2023/07/30 13:07:33;;;;;;;8.98;2.33;;;;;;;;;;5037465;28;20181;-88
2023/07/30 13:10:06;;;;;;;7.50;1.70;;;;;;;;;;5054041;28;20172;-90
2023/07/30 13:12:33;;;;;;;7.60;1.70;;;;;;;;;;5054373;28;20233;-88
2023/07/30 13:15:01;;;;;;;7.32;1.63;;;;;;;;;;5054282;28;20180;-89
2023/07/30 13:17:29;;;;;;;5.32;1.63;;;;;;;;;;5054650;28;20208;-89
2023/07/30 13:19:55;;;;;;;4.95;1.90;;;;;;;;;;5054345;28;20243;-88
2023/07/30 13:22:23;;;;;;;4.85;1.70;;;;;;;;;;5054075;28;20247;-89
2023/07/30 13:24:49;;;;;;;5.90;2.10;;;;;;;;;;5053915;28;20419;-90
2023/07/30 13:27:16;;;;;;;5.25;1.70;;;;;;;;;;5054252;28;20238;-88
2023/07/30 13:29:45;;;;;;;5.07;1.83;;;;;;;;;;5054061;28;20176;-88
2023/07/30 13:32:11;;;;;;;5.88;1.90;;;;;;;;;;5054483;28;20172;-90
2023/07/30 13:34:37;;;;;;;4.97;2.47;;;;;;;;;;5054158;28;20234;-88
2023/07/30 13:37:05;;;;;;;6.47;1.67;;;;;;;;;;5054073;28;20240;-89
2023/07/30 13:39:31;;;;;;;4.93;1.58;;;;;;;;;;5038656;28;20173;-87
2023/07/30 13:41:57;;;;;;;5.80;1.70;;;;;;;;;;5054443;28;20202;-89
2023/07/30 13:44:23;;;;;;;7.65;1.90;;;;;;;;;;5053920;28;20168;-90
2023/07/30 13:46:53;;;;;;;5.13;1.75;;;;;;;;;;5055164;28;20176;-90
2023/07/30 13:49:19;;;;;;;4.82;1.65;;;;;;;;;;5054840;28;20238;-88
2023/07/30 13:51:45;;;;;;;2.85;1.58;;;;;;;;;;5054249;28;20180;-88
2023/07/30 13:54:14;;;;;;;6.20;1.55;;;;;;;;;;5054557;28;20207;-87
2023/07/30 13:56:40;;;;;;;4.10;1.60;;;;;;;;;;5053534;28;20178;-86
2023/07/30 13:59:08;;;;;;;4.43;1.45;;;;;;;;;;5053473;28;20171;-86
2023/07/30 14:01:37;;;;;;;9.13;1.83;;;;;;;;;;5053513;28;20172;-85
2023/07/30 14:04:03;;;;;;;7.43;2.53;;;;;;;;;;5053978;28;20172;-87
2023/07/30 14:06:30;;;;;;;5.80;1.48;;;;;;;;;;5053925;28;20246;-85
2023/07/30 14:08:59;;;;;;;3.70;1.45;;;;;;;;;;5053784;28;20172;-86
2023/07/30 14:11:26;;;;;;;7.65;1.90;;;;;;;;;;5053584;28;20172;-85
2023/07/30 14:13:52;;;;;;;6.72;1.60;;;;;;;;;;5053390;28;20204;-86
2023/07/30 14:16:23;;;;;;;4.00;1.50;;;;;;;;;;5037349;28;20188;-86
2023/07/30 14:18:49;;;;;;;5.45;1.60;;;;;;;;;;5053073;28;20267;-86
2023/07/30 14:21:18;;;;;;;5.57;1.40;;;;;;;;;;5053071;28;20216;-86
2023/07/30 14:23:44;;;;;;;6.75;3.45;;;;;;;;;;5052064;28;20242;-86
2023/07/30 14:26:10;;;;;;;6.38;2.40;;;;;;;;;;5036372;28;20184;-85
2023/07/30 14:28:36;;;;;;;3.75;1.75;;;;;;;;;;5053089;28;20357;-86
2023/07/30 14:31:04;;;;;;;3.78;1.83;;;;;;;;;;5052850;28;20184;-84
2023/07/30 14:33:30;;;;;;;6.22;1.80;;;;;;;;;;5053186;28;20208;-85
2023/07/30 14:35:56;;;;;;;5.18;2.10;;;;;;;;;;5052787;28;20179;-84
2023/07/30 14:38:25;;;;;;;9.32;2.00;;;;;;;;;;5053401;28;20172;-86
2023/07/30 14:40:51;;;;;;;5.93;2.15;;;;;;;;;;5052958;28;20176;-87
2023/07/30 14:43:17;;;;;;;5.13;1.77;;;;;;;;;;5052705;28;20176;-87
2023/07/30 14:45:43;;;;;;;4.45;1.92;;;;;;;;;;5052325;28;20226;-85
2023/07/30 14:48:12;;;;;;;18.38;3.20;;;;;;;;;;5052004;28;20409;-89
2023/07/30 14:50:38;;;;;;;10.75;2.40;;;;;;;;;;5052729;28;20176;-88
2023/07/30 14:53:04;;;;;;;4.75;2.00;;;;;;;;;;5049758;28;20503;-87
2023/07/30 14:55:32;;;;;;;7.50;1.90;;;;;;;;;;5050621;28;20219;-87
2023/07/30 14:58:00;;;;;;;6.90;2.00;;;;;;;;;;5052327;28;20175;-87